sensor_id;sensor_type;location;lat;lon;timestamp;P1;durP1;ratioP1;P2;durP2;ratioP2
11675;SDS011;5894;42.768;23.404;2023-02-28T00:00:12;45.13;;;18.77;;
11675;SDS011;5894;42.768;23.404;2023-02-28T00:02:42;34.27;;;16.93;;
11675;SDS011;5894;42.768;23.404;2023-02-28T00:05:10;27.30;;;14.87;;
11675;SDS011;5894;42.768;23.404;2023-02-28T00:07:38;21.67;;;13.03;;
11675;SDS011;5894;42.768;23.404;2023-02-28T00:10:06;21.03;;;13.97;;
11675;SDS011;5894;42.768;23.404;2023-02-28T00:12:34;16.70;;;11.00;;
11675;SDS011;5894;42.768;23.404;2023-02-28T00:15:04;18.40;;;11.83;;
11675;SDS011;5894;42.768;23.404;2023-02-28T00:17:32;22.40;;;11.87;;
11675;SDS011;5894;42.768;23.404;2023-02-28T00:19:59;16.77;;;11.47;;
11675;SDS011;5894;42.768;23.404;2023-02-28T00:22:35;21.47;;;12.63;;
11675;SDS011;5894;42.768;23.404;2023-02-28T00:25:03;41.60;;;18.87;;
11675;SDS011;5894;42.768;23.404;2023-02-28T00:27:32;35.67;;;16.33;;
11675;SDS011;5894;42.768;23.404;2023-02-28T00:29:59;32.03;;;15.47;;
11675;SDS011;5894;42.768;23.404;2023-02-28T00:32:27;26.10;;;13.87;;
11675;SDS011;5894;42.768;23.404;2023-02-28T00:34:54;23.60;;;13.00;;
11675;SDS011;5894;42.768;23.404;2023-02-28T00:37:21;21.70;;;13.10;;
11675;SDS011;5894;42.768;23.404;2023-02-28T00:39:48;19.77;;;12.27;;
11675;SDS011;5894;42.768;23.404;2023-02-28T00:42:15;17.93;;;11.93;;
11675;SDS011;5894;42.768;23.404;2023-02-28T00:44:42;20.23;;;13.30;;
11675;SDS011;5894;42.768;23.404;2023-02-28T00:47:10;27.27;;;16.57;;
11675;SDS011;5894;42.768;23.404;2023-02-28T00:49:38;28.67;;;18.20;;
11675;SDS011;5894;42.768;23.404;2023-02-28T00:52:08;29.27;;;17.93;;
11675;SDS011;5894;42.768;23.404;2023-02-28T00:54:35;26.07;;;15.63;;
11675;SDS011;5894;42.768;23.404;2023-02-28T00:57:02;27.50;;;15.87;;
11675;SDS011;5894;42.768;23.404;2023-02-28T00:59:30;22.77;;;13.93;;
11675;SDS011;5894;42.768;23.404;2023-02-28T01:01:57;21.97;;;14.17;;
11675;SDS011;5894;42.768;23.404;2023-02-28T01:04:24;20.13;;;13.23;;
11675;SDS011;5894;42.768;23.404;2023-02-28T01:06:53;20.43;;;13.50;;
11675;SDS011;5894;42.768;23.404;2023-02-28T01:09:19;18.53;;;13.20;;
11675;SDS011;5894;42.768;23.404;2023-02-28T01:11:46;17.77;;;12.70;;
11675;SDS011;5894;42.768;23.404;2023-02-28T01:14:14;18.20;;;12.83;;
11675;SDS011;5894;42.768;23.404;2023-02-28T01:16:44;21.03;;;13.30;;
11675;SDS011;5894;42.768;23.404;2023-02-28T01:19:11;19.07;;;13.03;;
11675;SDS011;5894;42.768;23.404;2023-02-28T01:21:38;23.20;;;14.20;;
11675;SDS011;5894;42.768;23.404;2023-02-28T01:24:07;19.67;;;13.77;;
11675;SDS011;5894;42.768;23.404;2023-02-28T01:26:34;22.97;;;13.40;;
11675;SDS011;5894;42.768;23.404;2023-02-28T01:29:01;20.70;;;13.93;;
11675;SDS011;5894;42.768;23.404;2023-02-28T01:31:29;23.40;;;14.60;;
11675;SDS011;5894;42.768;23.404;2023-02-28T01:33:56;20.87;;;12.87;;
11675;SDS011;5894;42.768;23.404;2023-02-28T01:36:26;20.93;;;13.67;;
11675;SDS011;5894;42.768;23.404;2023-02-28T01:38:54;20.27;;;13.47;;
11675;SDS011;5894;42.768;23.404;2023-02-28T01:41:23;21.03;;;14.47;;
11675;SDS011;5894;42.768;23.404;2023-02-28T01:43:54;20.87;;;13.80;;
11675;SDS011;5894;42.768;23.404;2023-02-28T01:46:23;19.37;;;13.47;;
11675;SDS011;5894;42.768;23.404;2023-02-28T01:48:54;21.50;;;14.23;;
11675;SDS011;5894;42.768;23.404;2023-02-28T01:51:27;20.77;;;14.30;;
11675;SDS011;5894;42.768;23.404;2023-02-28T01:54:00;23.90;;;14.83;;
11675;SDS011;5894;42.768;23.404;2023-02-28T01:56:32;23.77;;;15.00;;
11675;SDS011;5894;42.768;23.404;2023-02-28T01:59:04;20.63;;;14.47;;
11675;SDS011;5894;42.768;23.404;2023-02-28T02:01:31;22.67;;;13.90;;
11675;SDS011;5894;42.768;23.404;2023-02-28T02:04:01;23.37;;;15.87;;
11675;SDS011;5894;42.768;23.404;2023-02-28T02:06:29;22.30;;;14.63;;
11675;SDS011;5894;42.768;23.404;2023-02-28T02:09:00;21.77;;;15.20;;
11675;SDS011;5894;42.768;23.404;2023-02-28T02:11:28;25.43;;;16.37;;
11675;SDS011;5894;42.768;23.404;2023-02-28T02:14:08;22.90;;;15.43;;
11675;SDS011;5894;42.768;23.404;2023-02-28T02:16:45;25.10;;;14.67;;
11675;SDS011;5894;42.768;23.404;2023-02-28T02:19:28;20.63;;;14.40;;
11675;SDS011;5894;42.768;23.404;2023-02-28T02:22:24;24.33;;;15.03;;
11675;SDS011;5894;42.768;23.404;2023-02-28T02:25:16;24.33;;;15.53;;
11675;SDS011;5894;42.768;23.404;2023-02-28T02:31:04;34.97;;;18.17;;
11675;SDS011;5894;42.768;23.404;2023-02-28T02:36:53;37.43;;;19.43;;
11675;SDS011;5894;42.768;23.404;2023-02-28T02:39:29;35.67;;;18.70;;
11675;SDS011;5894;42.768;23.404;2023-02-28T02:42:01;28.37;;;16.67;;
11675;SDS011;5894;42.768;23.404;2023-02-28T02:44:38;31.33;;;17.33;;
11675;SDS011;5894;42.768;23.404;2023-02-28T02:47:12;25.73;;;14.53;;
11675;SDS011;5894;42.768;23.404;2023-02-28T02:49:45;24.93;;;14.87;;
11675;SDS011;5894;42.768;23.404;2023-02-28T02:52:16;23.17;;;13.63;;
11675;SDS011;5894;42.768;23.404;2023-02-28T02:54:47;23.53;;;13.60;;
11675;SDS011;5894;42.768;23.404;2023-02-28T02:57:20;25.00;;;14.33;;
11675;SDS011;5894;42.768;23.404;2023-02-28T02:59:51;23.90;;;13.93;;
11675;SDS011;5894;42.768;23.404;2023-02-28T03:02:21;22.10;;;13.70;;
11675;SDS011;5894;42.768;23.404;2023-02-28T03:04:52;24.53;;;14.13;;
11675;SDS011;5894;42.768;23.404;2023-02-28T03:07:25;21.47;;;13.40;;
11675;SDS011;5894;42.768;23.404;2023-02-28T03:09:52;20.70;;;12.87;;
11675;SDS011;5894;42.768;23.404;2023-02-28T03:12:20;21.93;;;13.00;;
11675;SDS011;5894;42.768;23.404;2023-02-28T03:14:55;20.50;;;13.37;;
11675;SDS011;5894;42.768;23.404;2023-02-28T03:17:34;20.13;;;12.93;;
11675;SDS011;5894;42.768;23.404;2023-02-28T03:20:19;18.47;;;12.33;;
11675;SDS011;5894;42.768;23.404;2023-02-28T03:23:00;23.60;;;13.33;;
11675;SDS011;5894;42.768;23.404;2023-02-28T03:25:35;23.77;;;14.13;;
11675;SDS011;5894;42.768;23.404;2023-02-28T03:28:10;22.77;;;14.97;;
11675;SDS011;5894;42.768;23.404;2023-02-28T03:30:42;24.03;;;14.80;;
11675;SDS011;5894;42.768;23.404;2023-02-28T03:33:20;23.77;;;15.00;;
11675;SDS011;5894;42.768;23.404;2023-02-28T03:35:52;27.37;;;15.70;;
11675;SDS011;5894;42.768;23.404;2023-02-28T03:38:22;31.37;;;14.87;;
11675;SDS011;5894;42.768;23.404;2023-02-28T03:40:57;44.60;;;15.53;;
11675;SDS011;5894;42.768;23.404;2023-02-28T03:43:29;26.57;;;15.63;;
11675;SDS011;5894;42.768;23.404;2023-02-28T03:46:00;28.50;;;14.17;;
11675;SDS011;5894;42.768;23.404;2023-02-28T03:48:32;35.37;;;14.70;;
11675;SDS011;5894;42.768;23.404;2023-02-28T03:51:06;24.20;;;13.90;;
11675;SDS011;5894;42.768;23.404;2023-02-28T03:53:37;40.70;;;18.53;;
11675;SDS011;5894;42.768;23.404;2023-02-28T03:56:11;60.13;;;24.43;;
11675;SDS011;5894;42.768;23.404;2023-02-28T03:58:43;54.80;;;27.53;;
11675;SDS011;5894;42.768;23.404;2023-02-28T04:01:15;41.10;;;23.27;;
11675;SDS011;5894;42.768;23.404;2023-02-28T04:03:46;32.37;;;17.97;;
11675;SDS011;5894;42.768;23.404;2023-02-28T04:06:16;33.23;;;20.27;;
11675;SDS011;5894;42.768;23.404;2023-02-28T04:08:45;39.07;;;20.83;;
11675;SDS011;5894;42.768;23.404;2023-02-28T04:11:16;35.00;;;18.80;;
11675;SDS011;5894;42.768;23.404;2023-02-28T04:13:46;44.37;;;20.00;;
11675;SDS011;5894;42.768;23.404;2023-02-28T04:16:13;35.90;;;19.33;;
11675;SDS011;5894;42.768;23.404;2023-02-28T04:18:40;33.77;;;18.27;;
11675;SDS011;5894;42.768;23.404;2023-02-28T04:21:08;54.17;;;18.93;;
11675;SDS011;5894;42.768;23.404;2023-02-28T04:23:37;42.77;;;19.40;;
11675;SDS011;5894;42.768;23.404;2023-02-28T04:26:04;60.80;;;20.47;;
11675;SDS011;5894;42.768;23.404;2023-02-28T04:28:31;112.60;;;20.17;;
11675;SDS011;5894;42.768;23.404;2023-02-28T04:30:59;88.97;;;21.23;;
11675;SDS011;5894;42.768;23.404;2023-02-28T04:33:29;42.07;;;19.13;;
11675;SDS011;5894;42.768;23.404;2023-02-28T04:36:00;119.47;;;17.20;;
11675;SDS011;5894;42.768;23.404;2023-02-28T04:38:29;85.90;;;15.67;;
11675;SDS011;5894;42.768;23.404;2023-02-28T04:41:00;31.10;;;15.87;;
11675;SDS011;5894;42.768;23.404;2023-02-28T04:43:27;24.60;;;15.00;;
11675;SDS011;5894;42.768;23.404;2023-02-28T04:45:55;27.20;;;15.33;;
11675;SDS011;5894;42.768;23.404;2023-02-28T04:48:23;25.73;;;15.07;;
11675;SDS011;5894;42.768;23.404;2023-02-28T04:50:51;57.23;;;15.93;;
11675;SDS011;5894;42.768;23.404;2023-02-28T04:53:18;53.00;;;15.60;;
11675;SDS011;5894;42.768;23.404;2023-02-28T04:55:45;27.50;;;17.10;;
11675;SDS011;5894;42.768;23.404;2023-02-28T04:58:13;99.13;;;37.20;;
11675;SDS011;5894;42.768;23.404;2023-02-28T05:00:41;86.10;;;35.40;;
11675;SDS011;5894;42.768;23.404;2023-02-28T05:03:08;69.27;;;30.80;;
11675;SDS011;5894;42.768;23.404;2023-02-28T05:05:35;62.77;;;28.27;;
11675;SDS011;5894;42.768;23.404;2023-02-28T05:08:04;50.33;;;29.97;;
11675;SDS011;5894;42.768;23.404;2023-02-28T05:10:31;81.23;;;44.23;;
11675;SDS011;5894;42.768;23.404;2023-02-28T05:12:58;89.97;;;48.77;;
11675;SDS011;5894;42.768;23.404;2023-02-28T05:15:26;78.20;;;22.97;;
11675;SDS011;5894;42.768;23.404;2023-02-28T05:17:53;78.50;;;17.67;;
11675;SDS011;5894;42.768;23.404;2023-02-28T05:20:20;32.43;;;20.13;;
11675;SDS011;5894;42.768;23.404;2023-02-28T05:22:47;72.67;;;14.97;;
11675;SDS011;5894;42.768;23.404;2023-02-28T05:25:16;66.63;;;14.70;;
11675;SDS011;5894;42.768;23.404;2023-02-28T05:27:44;25.53;;;15.40;;
11675;SDS011;5894;42.768;23.404;2023-02-28T05:30:12;28.60;;;15.97;;
11675;SDS011;5894;42.768;23.404;2023-02-28T05:32:40;66.47;;;15.37;;
11675;SDS011;5894;42.768;23.404;2023-02-28T05:35:08;52.40;;;16.87;;
11675;SDS011;5894;42.768;23.404;2023-02-28T05:37:36;33.83;;;16.50;;
11675;SDS011;5894;42.768;23.404;2023-02-28T05:40:03;34.47;;;17.80;;
11675;SDS011;5894;42.768;23.404;2023-02-28T05:42:32;30.00;;;16.20;;
11675;SDS011;5894;42.768;23.404;2023-02-28T05:44:59;27.60;;;15.50;;
11675;SDS011;5894;42.768;23.404;2023-02-28T05:47:26;23.07;;;14.40;;
11675;SDS011;5894;42.768;23.404;2023-02-28T05:49:54;19.47;;;11.77;;
11675;SDS011;5894;42.768;23.404;2023-02-28T05:52:21;16.83;;;11.33;;
11675;SDS011;5894;42.768;23.404;2023-02-28T05:54:48;13.83;;;10.17;;
11675;SDS011;5894;42.768;23.404;2023-02-28T05:57:15;21.90;;;15.13;;
11675;SDS011;5894;42.768;23.404;2023-02-28T05:59:42;27.50;;;18.63;;
11675;SDS011;5894;42.768;23.404;2023-02-28T06:02:09;27.30;;;18.83;;
11675;SDS011;5894;42.768;23.404;2023-02-28T06:04:38;33.87;;;23.80;;
11675;SDS011;5894;42.768;23.404;2023-02-28T06:07:07;32.47;;;22.30;;
11675;SDS011;5894;42.768;23.404;2023-02-28T06:09:34;26.20;;;18.97;;
11675;SDS011;5894;42.768;23.404;2023-02-28T06:12:02;19.50;;;14.53;;
11675;SDS011;5894;42.768;23.404;2023-02-28T06:14:32;20.30;;;14.40;;
11675;SDS011;5894;42.768;23.404;2023-02-28T06:17:00;18.03;;;13.63;;
11675;SDS011;5894;42.768;23.404;2023-02-28T06:19:27;21.03;;;14.17;;
11675;SDS011;5894;42.768;23.404;2023-02-28T06:21:55;19.30;;;13.87;;
11675;SDS011;5894;42.768;23.404;2023-02-28T06:24:25;20.00;;;14.50;;
11675;SDS011;5894;42.768;23.404;2023-02-28T06:26:53;22.37;;;16.40;;
11675;SDS011;5894;42.768;23.404;2023-02-28T06:29:20;23.43;;;17.60;;
11675;SDS011;5894;42.768;23.404;2023-02-28T06:31:47;22.80;;;15.93;;
11675;SDS011;5894;42.768;23.404;2023-02-28T06:34:14;20.70;;;14.30;;
11675;SDS011;5894;42.768;23.404;2023-02-28T06:36:41;20.13;;;15.23;;
11675;SDS011;5894;42.768;23.404;2023-02-28T06:39:08;21.13;;;14.50;;
11675;SDS011;5894;42.768;23.404;2023-02-28T06:41:37;23.17;;;18.43;;
11675;SDS011;5894;42.768;23.404;2023-02-28T06:44:05;18.10;;;13.70;;
11675;SDS011;5894;42.768;23.404;2023-02-28T06:46:40;21.83;;;15.23;;
11675;SDS011;5894;42.768;23.404;2023-02-28T06:49:07;19.37;;;14.67;;
11675;SDS011;5894;42.768;23.404;2023-02-28T06:51:35;18.50;;;14.00;;
11675;SDS011;5894;42.768;23.404;2023-02-28T06:54:03;18.97;;;15.03;;
11675;SDS011;5894;42.768;23.404;2023-02-28T06:56:30;16.87;;;14.03;;
11675;SDS011;5894;42.768;23.404;2023-02-28T06:58:58;12.27;;;9.60;;
11675;SDS011;5894;42.768;23.404;2023-02-28T07:01:25;14.17;;;10.23;;
11675;SDS011;5894;42.768;23.404;2023-02-28T07:03:53;17.10;;;12.87;;
11675;SDS011;5894;42.768;23.404;2023-02-28T07:06:20;17.47;;;13.53;;
11675;SDS011;5894;42.768;23.404;2023-02-28T07:08:48;16.23;;;12.30;;
11675;SDS011;5894;42.768;23.404;2023-02-28T07:11:15;13.77;;;10.70;;
11675;SDS011;5894;42.768;23.404;2023-02-28T07:13:42;17.03;;;11.67;;
11675;SDS011;5894;42.768;23.404;2023-02-28T07:16:11;16.93;;;11.60;;
11675;SDS011;5894;42.768;23.404;2023-02-28T07:18:37;17.53;;;12.67;;
11675;SDS011;5894;42.768;23.404;2023-02-28T07:21:05;22.40;;;13.07;;
11675;SDS011;5894;42.768;23.404;2023-02-28T07:23:34;24.07;;;15.27;;
11675;SDS011;5894;42.768;23.404;2023-02-28T07:26:03;25.63;;;15.20;;
11675;SDS011;5894;42.768;23.404;2023-02-28T07:28:30;22.93;;;14.53;;
11675;SDS011;5894;42.768;23.404;2023-02-28T07:31:02;26.20;;;15.20;;
11675;SDS011;5894;42.768;23.404;2023-02-28T07:33:31;24.20;;;15.80;;
11675;SDS011;5894;42.768;23.404;2023-02-28T07:36:02;26.83;;;16.27;;
11675;SDS011;5894;42.768;23.404;2023-02-28T07:38:30;23.53;;;15.13;;
11675;SDS011;5894;42.768;23.404;2023-02-28T07:40:57;33.70;;;21.53;;
11675;SDS011;5894;42.768;23.404;2023-02-28T07:43:24;35.27;;;21.70;;
11675;SDS011;5894;42.768;23.404;2023-02-28T07:45:51;45.53;;;26.93;;
11675;SDS011;5894;42.768;23.404;2023-02-28T07:48:17;45.60;;;26.27;;
11675;SDS011;5894;42.768;23.404;2023-02-28T07:50:45;38.90;;;24.40;;
11675;SDS011;5894;42.768;23.404;2023-02-28T07:53:21;38.57;;;24.03;;
11675;SDS011;5894;42.768;23.404;2023-02-28T07:55:48;42.97;;;23.37;;
11675;SDS011;5894;42.768;23.404;2023-02-28T07:58:15;43.00;;;22.73;;
11675;SDS011;5894;42.768;23.404;2023-02-28T08:00:41;45.93;;;25.40;;
11675;SDS011;5894;42.768;23.404;2023-02-28T08:03:09;44.70;;;24.10;;
11675;SDS011;5894;42.768;23.404;2023-02-28T08:05:38;41.07;;;22.67;;
11675;SDS011;5894;42.768;23.404;2023-02-28T08:08:06;38.37;;;23.07;;
11675;SDS011;5894;42.768;23.404;2023-02-28T08:10:33;46.10;;;23.60;;
11675;SDS011;5894;42.768;23.404;2023-02-28T08:13:01;42.73;;;23.67;;
11675;SDS011;5894;42.768;23.404;2023-02-28T08:15:28;41.27;;;24.13;;
11675;SDS011;5894;42.768;23.404;2023-02-28T08:17:54;38.83;;;23.53;;
11675;SDS011;5894;42.768;23.404;2023-02-28T08:20:22;42.00;;;21.43;;
11675;SDS011;5894;42.768;23.404;2023-02-28T08:22:49;37.70;;;22.47;;
11675;SDS011;5894;42.768;23.404;2023-02-28T08:25:17;34.97;;;20.13;;
11675;SDS011;5894;42.768;23.404;2023-02-28T08:27:44;33.53;;;20.13;;
11675;SDS011;5894;42.768;23.404;2023-02-28T08:30:11;32.03;;;19.00;;
11675;SDS011;5894;42.768;23.404;2023-02-28T08:32:39;31.00;;;18.93;;
11675;SDS011;5894;42.768;23.404;2023-02-28T08:35:06;29.93;;;18.87;;
11675;SDS011;5894;42.768;23.404;2023-02-28T08:37:34;33.77;;;19.73;;
11675;SDS011;5894;42.768;23.404;2023-02-28T08:40:02;35.27;;;19.90;;
11675;SDS011;5894;42.768;23.404;2023-02-28T08:42:31;30.53;;;18.03;;
11675;SDS011;5894;42.768;23.404;2023-02-28T08:44:58;29.47;;;18.30;;
11675;SDS011;5894;42.768;23.404;2023-02-28T08:47:25;31.20;;;18.17;;
11675;SDS011;5894;42.768;23.404;2023-02-28T08:49:52;29.70;;;19.33;;
11675;SDS011;5894;42.768;23.404;2023-02-28T08:52:19;33.17;;;20.33;;
11675;SDS011;5894;42.768;23.404;2023-02-28T08:54:46;31.83;;;19.57;;
11675;SDS011;5894;42.768;23.404;2023-02-28T08:57:13;34.83;;;19.40;;
11675;SDS011;5894;42.768;23.404;2023-02-28T08:59:41;31.87;;;19.30;;
11675;SDS011;5894;42.768;23.404;2023-02-28T09:02:08;32.50;;;20.10;;
11675;SDS011;5894;42.768;23.404;2023-02-28T09:04:38;31.97;;;19.13;;
11675;SDS011;5894;42.768;23.404;2023-02-28T09:07:05;31.63;;;19.93;;
11675;SDS011;5894;42.768;23.404;2023-02-28T09:09:31;33.40;;;20.60;;
11675;SDS011;5894;42.768;23.404;2023-02-28T09:11:58;33.90;;;20.33;;
11675;SDS011;5894;42.768;23.404;2023-02-28T09:14:25;43.30;;;26.07;;
11675;SDS011;5894;42.768;23.404;2023-02-28T09:16:53;45.67;;;29.33;;
11675;SDS011;5894;42.768;23.404;2023-02-28T09:19:20;36.73;;;22.43;;
11675;SDS011;5894;42.768;23.404;2023-02-28T09:21:47;31.13;;;18.67;;
11675;SDS011;5894;42.768;23.404;2023-02-28T09:24:14;28.63;;;18.87;;
11675;SDS011;5894;42.768;23.404;2023-02-28T09:26:41;31.63;;;19.60;;
11675;SDS011;5894;42.768;23.404;2023-02-28T09:29:08;32.33;;;19.60;;
11675;SDS011;5894;42.768;23.404;2023-02-28T09:31:35;31.80;;;19.43;;
11675;SDS011;5894;42.768;23.404;2023-02-28T09:34:03;24.40;;;17.13;;
11675;SDS011;5894;42.768;23.404;2023-02-28T09:36:30;26.30;;;16.70;;
11675;SDS011;5894;42.768;23.404;2023-02-28T09:38:58;27.93;;;17.97;;
11675;SDS011;5894;42.768;23.404;2023-02-28T09:41:25;27.40;;;17.30;;
11675;SDS011;5894;42.768;23.404;2023-02-28T09:43:55;25.33;;;16.97;;
11675;SDS011;5894;42.768;23.404;2023-02-28T09:46:27;26.33;;;16.70;;
11675;SDS011;5894;42.768;23.404;2023-02-28T09:48:58;34.13;;;19.03;;
11675;SDS011;5894;42.768;23.404;2023-02-28T09:51:33;27.23;;;17.33;;
11675;SDS011;5894;42.768;23.404;2023-02-28T09:54:08;29.77;;;17.13;;
11675;SDS011;5894;42.768;23.404;2023-02-28T09:56:42;25.40;;;15.63;;
11675;SDS011;5894;42.768;23.404;2023-02-28T09:59:13;23.13;;;15.90;;
11675;SDS011;5894;42.768;23.404;2023-02-28T10:01:46;23.07;;;15.33;;
11675;SDS011;5894;42.768;23.404;2023-02-28T10:04:22;22.43;;;14.70;;
11675;SDS011;5894;42.768;23.404;2023-02-28T10:07:05;26.80;;;15.53;;
11675;SDS011;5894;42.768;23.404;2023-02-28T10:09:42;28.73;;;18.53;;
11675;SDS011;5894;42.768;23.404;2023-02-28T10:12:13;25.20;;;14.80;;
11675;SDS011;5894;42.768;23.404;2023-02-28T10:14:43;24.73;;;14.50;;
11675;SDS011;5894;42.768;23.404;2023-02-28T10:17:13;23.00;;;13.67;;
11675;SDS011;5894;42.768;23.404;2023-02-28T10:19:47;23.27;;;13.63;;
11675;SDS011;5894;42.768;23.404;2023-02-28T10:22:24;24.13;;;15.57;;
11675;SDS011;5894;42.768;23.404;2023-02-28T10:24:56;22.13;;;14.57;;
11675;SDS011;5894;42.768;23.404;2023-02-28T10:27:28;23.30;;;14.30;;
11675;SDS011;5894;42.768;23.404;2023-02-28T10:29:57;20.67;;;14.47;;
11675;SDS011;5894;42.768;23.404;2023-02-28T10:32:27;27.40;;;16.03;;
11675;SDS011;5894;42.768;23.404;2023-02-28T10:34:57;21.27;;;13.63;;
11675;SDS011;5894;42.768;23.404;2023-02-28T10:37:27;23.33;;;13.67;;
11675;SDS011;5894;42.768;23.404;2023-02-28T10:39:54;21.87;;;13.60;;
11675;SDS011;5894;42.768;23.404;2023-02-28T10:42:22;23.42;;;15.25;;
11675;SDS011;5894;42.768;23.404;2023-02-28T10:45:04;25.23;;;15.63;;
11675;SDS011;5894;42.768;23.404;2023-02-28T10:47:33;25.30;;;16.23;;
11675;SDS011;5894;42.768;23.404;2023-02-28T10:50:04;29.83;;;17.30;;
11675;SDS011;5894;42.768;23.404;2023-02-28T10:52:37;22.00;;;13.60;;
11675;SDS011;5894;42.768;23.404;2023-02-28T10:55:18;31.92;;;18.83;;
11675;SDS011;5894;42.768;23.404;2023-02-28T10:57:48;32.23;;;17.30;;
11675;SDS011;5894;42.768;23.404;2023-02-28T11:00:16;23.38;;;13.70;;
11675;SDS011;5894;42.768;23.404;2023-02-28T11:02:46;27.73;;;16.77;;
11675;SDS011;5894;42.768;23.404;2023-02-28T11:08:02;29.70;;;16.90;;
11675;SDS011;5894;42.768;23.404;2023-02-28T11:10:33;27.67;;;16.00;;
11675;SDS011;5894;42.768;23.404;2023-02-28T11:13:00;26.37;;;15.37;;
11675;SDS011;5894;42.768;23.404;2023-02-28T11:15:28;28.08;;;17.35;;
11675;SDS011;5894;42.768;23.404;2023-02-28T11:17:57;32.10;;;17.43;;
11675;SDS011;5894;42.768;23.404;2023-02-28T11:20:27;29.17;;;18.77;;
11675;SDS011;5894;42.768;23.404;2023-02-28T11:22:57;25.80;;;15.70;;
11675;SDS011;5894;42.768;23.404;2023-02-28T11:25:28;26.80;;;15.00;;
11675;SDS011;5894;42.768;23.404;2023-02-28T11:27:58;25.88;;;15.38;;
11675;SDS011;5894;42.768;23.404;2023-02-28T11:30:34;26.02;;;14.20;;
11675;SDS011;5894;42.768;23.404;2023-02-28T11:35:48;30.02;;;16.73;;
11675;SDS011;5894;42.768;23.404;2023-02-28T11:38:16;28.90;;;16.40;;
11675;SDS011;5894;42.768;23.404;2023-02-28T11:40:46;29.90;;;16.33;;
11675;SDS011;5894;42.768;23.404;2023-02-28T11:43:20;30.00;;;16.30;;
11675;SDS011;5894;42.768;23.404;2023-02-28T11:46:06;24.27;;;16.35;;
11675;SDS011;5894;42.768;23.404;2023-02-28T11:48:52;29.67;;;17.58;;
11675;SDS011;5894;42.768;23.404;2023-02-28T11:51:29;27.73;;;15.77;;
11675;SDS011;5894;42.768;23.404;2023-02-28T11:56:55;25.60;;;14.40;;
11675;SDS011;5894;42.768;23.404;2023-02-28T11:59:35;26.73;;;14.37;;
11675;SDS011;5894;42.768;23.404;2023-02-28T12:02:20;27.07;;;15.50;;
11675;SDS011;5894;42.768;23.404;2023-02-28T12:04:52;27.77;;;15.48;;
11675;SDS011;5894;42.768;23.404;2023-02-28T12:07:32;25.73;;;15.10;;
11675;SDS011;5894;42.768;23.404;2023-02-28T12:10:11;24.58;;;14.27;;
11675;SDS011;5894;42.768;23.404;2023-02-28T12:12:49;23.67;;;14.17;;
11675;SDS011;5894;42.768;23.404;2023-02-28T12:15:37;24.83;;;13.82;;
11675;SDS011;5894;42.768;23.404;2023-02-28T12:18:31;25.73;;;12.80;;
11675;SDS011;5894;42.768;23.404;2023-02-28T12:21:14;22.48;;;13.10;;
11675;SDS011;5894;42.768;23.404;2023-02-28T12:23:57;24.77;;;13.15;;
11675;SDS011;5894;42.768;23.404;2023-02-28T12:26:35;20.83;;;12.80;;
11675;SDS011;5894;42.768;23.404;2023-02-28T12:29:09;20.85;;;13.10;;
11675;SDS011;5894;42.768;23.404;2023-02-28T12:31:44;21.57;;;12.53;;
11675;SDS011;5894;42.768;23.404;2023-02-28T12:34:16;26.95;;;15.02;;
11675;SDS011;5894;42.768;23.404;2023-02-28T12:36:47;24.10;;;13.73;;
11675;SDS011;5894;42.768;23.404;2023-02-28T12:39:16;21.17;;;12.70;;
11675;SDS011;5894;42.768;23.404;2023-02-28T12:41:51;27.17;;;15.02;;
11675;SDS011;5894;42.768;23.404;2023-02-28T12:44:23;26.50;;;14.77;;
11675;SDS011;5894;42.768;23.404;2023-02-28T12:46:57;26.77;;;15.23;;
11675;SDS011;5894;42.768;23.404;2023-02-28T12:49:27;21.48;;;12.88;;
11675;SDS011;5894;42.768;23.404;2023-02-28T12:51:57;19.17;;;12.10;;
11675;SDS011;5894;42.768;23.404;2023-02-28T12:54:28;23.67;;;13.65;;
11675;SDS011;5894;42.768;23.404;2023-02-28T12:57:03;18.90;;;12.02;;
11675;SDS011;5894;42.768;23.404;2023-02-28T12:59:39;21.35;;;11.77;;
11675;SDS011;5894;42.768;23.404;2023-02-28T13:02:10;24.08;;;14.48;;
11675;SDS011;5894;42.768;23.404;2023-02-28T13:08:10;23.73;;;14.37;;
11675;SDS011;5894;42.768;23.404;2023-02-28T13:10:50;23.58;;;13.55;;
11675;SDS011;5894;42.768;23.404;2023-02-28T13:13:20;26.63;;;13.90;;
11675;SDS011;5894;42.768;23.404;2023-02-28T13:16:02;27.52;;;16.23;;
11675;SDS011;5894;42.768;23.404;2023-02-28T13:18:35;26.20;;;13.83;;
11675;SDS011;5894;42.768;23.404;2023-02-28T13:21:05;21.83;;;11.85;;
11675;SDS011;5894;42.768;23.404;2023-02-28T13:23:38;24.77;;;13.07;;
11675;SDS011;5894;42.768;23.404;2023-02-28T13:26:23;25.80;;;13.10;;
11675;SDS011;5894;42.768;23.404;2023-02-28T13:29:28;22.75;;;12.77;;
11675;SDS011;5894;42.768;23.404;2023-02-28T13:35:16;24.67;;;13.43;;
11675;SDS011;5894;42.768;23.404;2023-02-28T13:38:16;26.08;;;14.45;;
11675;SDS011;5894;42.768;23.404;2023-02-28T13:40:51;25.60;;;12.60;;
11675;SDS011;5894;42.768;23.404;2023-02-28T13:43:17;21.35;;;13.25;;
11675;SDS011;5894;42.768;23.404;2023-02-28T13:48:37;18.65;;;11.13;;
11675;SDS011;5894;42.768;23.404;2023-02-28T13:54:06;25.38;;;13.40;;
11675;SDS011;5894;42.768;23.404;2023-02-28T13:57:01;25.40;;;12.00;;
11675;SDS011;5894;42.768;23.404;2023-02-28T13:59:39;27.23;;;14.02;;
11675;SDS011;5894;42.768;23.404;2023-02-28T14:02:31;48.75;;;21.35;;
11675;SDS011;5894;42.768;23.404;2023-02-28T14:05:09;27.75;;;13.63;;
11675;SDS011;5894;42.768;23.404;2023-02-28T14:07:44;32.90;;;15.90;;
11675;SDS011;5894;42.768;23.404;2023-02-28T14:13:11;18.95;;;11.25;;
11675;SDS011;5894;42.768;23.404;2023-02-28T14:16:02;18.17;;;9.82;;
11675;SDS011;5894;42.768;23.404;2023-02-28T14:18:31;15.03;;;7.40;;
11675;SDS011;5894;42.768;23.404;2023-02-28T14:21:01;13.47;;;5.17;;
11675;SDS011;5894;42.768;23.404;2023-02-28T14:23:46;16.03;;;7.40;;
11675;SDS011;5894;42.768;23.404;2023-02-28T14:26:32;14.60;;;7.33;;
11675;SDS011;5894;42.768;23.404;2023-02-28T14:29:15;13.80;;;7.93;;
11675;SDS011;5894;42.768;23.404;2023-02-28T14:31:58;16.23;;;9.07;;
11675;SDS011;5894;42.768;23.404;2023-02-28T14:34:37;12.93;;;7.57;;
11675;SDS011;5894;42.768;23.404;2023-02-28T14:37:10;13.43;;;7.37;;
11675;SDS011;5894;42.768;23.404;2023-02-28T14:39:44;17.07;;;7.80;;
11675;SDS011;5894;42.768;23.404;2023-02-28T14:42:25;20.07;;;8.67;;
11675;SDS011;5894;42.768;23.404;2023-02-28T14:44:55;7.93;;;5.13;;
11675;SDS011;5894;42.768;23.404;2023-02-28T14:47:22;7.53;;;4.23;;
11675;SDS011;5894;42.768;23.404;2023-02-28T14:49:51;16.00;;;8.57;;
11675;SDS011;5894;42.768;23.404;2023-02-28T14:52:20;10.13;;;5.23;;
11675;SDS011;5894;42.768;23.404;2023-02-28T14:54:52;8.47;;;4.70;;
11675;SDS011;5894;42.768;23.404;2023-02-28T14:57:21;7.97;;;5.93;;
11675;SDS011;5894;42.768;23.404;2023-02-28T14:59:56;9.87;;;6.27;;
11675;SDS011;5894;42.768;23.404;2023-02-28T15:02:25;15.67;;;9.10;;
11675;SDS011;5894;42.768;23.404;2023-02-28T15:04:56;13.13;;;7.17;;
11675;SDS011;5894;42.768;23.404;2023-02-28T15:07:25;13.37;;;7.00;;
11675;SDS011;5894;42.768;23.404;2023-02-28T15:10:09;11.03;;;6.10;;
11675;SDS011;5894;42.768;23.404;2023-02-28T15:12:40;11.63;;;6.97;;
11675;SDS011;5894;42.768;23.404;2023-02-28T15:15:14;12.47;;;8.57;;